createdAt,value
2019-04-26T00:03:14.152Z,11.97
2019-04-26T00:13:37.296Z,11.50
2019-04-26T00:23:42.878Z,11.80
2019-04-26T00:33:48.669Z,11.40
2019-04-26T00:43:54.271Z,11.43
2019-04-26T00:53:59.940Z,11.67
2019-04-26T01:04:06.496Z,12.23
2019-04-26T01:14:11.816Z,11.87
2019-04-26T01:24:19.394Z,12.27
2019-04-26T01:34:26.131Z,11.27
2019-04-26T01:44:51.780Z,11.43
2019-04-26T01:54:57.465Z,11.10
2019-04-26T02:05:05.992Z,13.43
2019-04-26T02:15:11.642Z,11.77
2019-04-26T02:25:17.500Z,13.30
2019-04-26T02:35:22.786Z,12.10
2019-04-26T02:45:58.924Z,13.17
2019-04-26T02:56:29.805Z,12.37
2019-04-26T03:06:37.287Z,12.87
2019-04-26T03:17:06.892Z,12.70
2019-04-26T03:27:25.762Z,12.60
2019-04-26T03:38:08.952Z,12.33
2019-04-26T03:48:45.917Z,13.63
2019-04-26T03:59:25.424Z,12.33
2019-04-26T04:09:32.146Z,12.63
2019-04-26T04:20:02.149Z,13.50
2019-04-26T04:30:36.191Z,14.20
2019-04-26T04:41:16.555Z,11.60
2019-04-26T04:51:44.178Z,12.40
2019-04-26T05:02:34.303Z,12.57
2019-04-26T05:12:58.877Z,15.30
2019-04-26T05:23:39.410Z,14.67
2019-04-26T05:34:31.690Z,13.10
2019-04-26T05:45:15.645Z,14.30
2019-04-26T05:56:05.331Z,13.62
2019-04-26T06:06:25.463Z,13.70
2019-04-26T06:17:01.763Z,12.80
2019-04-26T06:27:28.313Z,13.00
2019-04-26T06:37:48.011Z,12.75
2019-04-26T06:48:01.843Z,13.00
2019-04-26T06:58:31.540Z,10.93
2019-04-26T07:08:57.613Z,11.10
2019-04-26T07:19:54.573Z,10.93
2019-04-26T07:30:17.391Z,9.78
2019-04-26T07:40:47.953Z,10.53
2019-04-26T07:51:52.687Z,8.83
2019-04-26T08:02:27.239Z,9.80
2019-04-26T08:12:35.382Z,9.13
2019-04-26T08:22:44.291Z,9.03
2019-04-26T08:32:55.370Z,8.03
2019-04-26T08:43:20.166Z,8.90
2019-04-26T08:53:27.647Z,7.47
2019-04-26T09:03:53.431Z,8.00
2019-04-26T09:14:24.130Z,8.20
2019-04-26T09:24:26.651Z,8.53
2019-04-26T09:34:32.250Z,7.87
2019-04-26T09:44:46.079Z,7.33
2019-04-26T09:54:51.770Z,7.27
2019-04-26T10:04:57.300Z,7.17
2019-04-26T10:15:14.202Z,6.60
2019-04-26T10:25:20.376Z,6.67
2019-04-26T10:35:26.244Z,5.90
2019-04-26T10:45:32.082Z,5.83
2019-04-26T10:56:08.635Z,5.70
2019-04-26T11:06:15.187Z,4.63
2019-04-26T11:16:20.944Z,5.93
2019-04-26T11:26:26.874Z,4.83
2019-04-26T11:36:32.372Z,5.90
2019-04-26T11:46:44.484Z,4.73
2019-04-26T11:56:45.151Z,4.20
2019-04-26T12:06:57.941Z,5.17
2019-04-26T12:17:03.786Z,3.63
2019-04-26T12:27:10.449Z,4.17
2019-04-26T12:37:19.974Z,4.00
2019-04-26T12:47:45.803Z,3.23
2019-04-26T12:57:52.207Z,4.43
2019-04-26T13:07:57.916Z,3.47
2019-04-26T13:18:07.245Z,3.70
2019-04-26T13:28:11.635Z,3.80
2019-04-26T13:38:17.069Z,4.20
2019-04-26T13:48:45.401Z,4.67
2019-04-26T13:58:54.323Z,4.23
2019-04-26T14:09:02.815Z,4.17
2019-04-26T14:19:14.457Z,4.90
2019-04-26T14:29:15.920Z,3.97
2019-04-26T14:39:35.121Z,4.90
2019-04-26T14:49:38.512Z,4.67
2019-04-26T14:59:53.291Z,4.33
2019-04-26T15:09:58.893Z,5.40
2019-04-26T15:20:04.402Z,4.70
2019-04-26T15:30:10.984Z,4.37
2019-04-26T15:40:35.174Z,5.20
2019-04-26T15:50:48.458Z,4.80
2019-04-26T16:00:49.677Z,6.50
2019-04-26T16:10:55.974Z,5.17
2019-04-26T16:21:01.951Z,4.70
2019-04-26T16:31:34.337Z,4.80
2019-04-26T16:41:39.832Z,4.77
2019-04-26T16:51:45.431Z,4.07
2019-04-26T17:01:53.641Z,4.97
2019-04-26T17:11:59.058Z,4.97
2019-04-26T17:22:23.532Z,5.43
2019-04-26T17:32:28.918Z,4.57
2019-04-26T17:42:36.451Z,5.13
2019-04-26T17:52:44.073Z,5.57
2019-04-26T18:02:48.467Z,5.33
2019-04-26T18:12:55.462Z,5.43
2019-04-26T18:23:05.665Z,5.90
2019-04-26T18:33:13.324Z,5.80
2019-04-26T18:43:23.889Z,5.20
2019-04-26T18:53:43.890Z,5.43
2019-04-26T19:03:49.510Z,5.60
2019-04-26T19:14:15.322Z,5.00
2019-04-26T19:24:21.472Z,6.33
2019-04-26T19:34:30.268Z,6.20
2019-04-26T19:44:34.939Z,5.63
2019-04-26T19:54:51.290Z,5.47
2019-04-26T20:05:08.747Z,6.23
2019-04-26T20:15:25.484Z,6.73
2019-04-26T20:25:22.346Z,6.43
2019-04-26T20:35:28.289Z,6.70
2019-04-26T20:45:41.332Z,5.47
2019-04-26T20:55:42.762Z,8.03
2019-04-26T21:05:52.713Z,6.40
2019-04-26T21:15:58.426Z,6.60
2019-04-26T21:26:25.083Z,7.43
2019-04-26T21:36:41.112Z,7.33
2019-04-26T21:46:49.545Z,7.37
2019-04-26T21:56:54.015Z,6.20
2019-04-26T22:06:59.966Z,7.47
2019-04-26T22:17:16.183Z,6.83
2019-04-26T22:27:24.860Z,7.80
2019-04-26T22:37:30.005Z,7.40
2019-04-26T22:47:42.368Z,8.17
2019-04-26T22:57:49.495Z,7.70
2019-04-26T23:07:58.892Z,7.73
2019-04-26T23:18:38.816Z,7.43
2019-04-26T23:28:43.331Z,6.73
2019-04-26T23:38:48.680Z,7.27
2019-04-26T23:48:54.056Z,6.47
2019-04-26T23:58:59.387Z,7.10
